sensor_id;sensor_type;location;lat;lon;timestamp;P1;durP1;ratioP1;P2;durP2;ratioP2
84288;SDS011;75147;50.294;18.660;2024-03-02T00:01:57;69.30;;;31.55;;
84288;SDS011;75147;50.294;18.660;2024-03-02T00:04:23;73.15;;;31.55;;
84288;SDS011;75147;50.294;18.660;2024-03-02T00:06:51;73.97;;;33.33;;
84288;SDS011;75147;50.294;18.660;2024-03-02T00:09:19;70.47;;;32.45;;
84288;SDS011;75147;50.294;18.660;2024-03-02T00:11:45;71.13;;;32.90;;
84288;SDS011;75147;50.294;18.660;2024-03-02T00:14:10;75.53;;;32.13;;
84288;SDS011;75147;50.294;18.660;2024-03-02T00:16:36;67.80;;;32.13;;
84288;SDS011;75147;50.294;18.660;2024-03-02T00:19:02;72.95;;;33.33;;
84288;SDS011;75147;50.294;18.660;2024-03-02T00:21:29;78.80;;;33.13;;
84288;SDS011;75147;50.294;18.660;2024-03-02T00:23:55;71.72;;;30.63;;
84288;SDS011;75147;50.294;18.660;2024-03-02T00:26:25;69.53;;;31.17;;
84288;SDS011;75147;50.294;18.660;2024-03-02T00:28:51;62.42;;;29.50;;
84288;SDS011;75147;50.294;18.660;2024-03-02T00:31:22;71.88;;;31.50;;
84288;SDS011;75147;50.294;18.660;2024-03-02T00:33:48;70.53;;;33.13;;
84288;SDS011;75147;50.294;18.660;2024-03-02T00:36:26;75.88;;;33.03;;
84288;SDS011;75147;50.294;18.660;2024-03-02T00:38:52;73.72;;;33.05;;
84288;SDS011;75147;50.294;18.660;2024-03-02T00:41:21;69.72;;;31.98;;
84288;SDS011;75147;50.294;18.660;2024-03-02T00:46:20;71.20;;;31.80;;
84288;SDS011;75147;50.294;18.660;2024-03-02T00:48:56;64.18;;;30.05;;
84288;SDS011;75147;50.294;18.660;2024-03-02T00:51:23;75.93;;;32.72;;
84288;SDS011;75147;50.294;18.660;2024-03-02T00:53:50;73.53;;;32.70;;
84288;SDS011;75147;50.294;18.660;2024-03-02T00:56:17;71.82;;;31.80;;
84288;SDS011;75147;50.294;18.660;2024-03-02T00:58:43;73.78;;;30.85;;
84288;SDS011;75147;50.294;18.660;2024-03-02T01:01:09;68.15;;;31.10;;
84288;SDS011;75147;50.294;18.660;2024-03-02T01:03:34;62.45;;;29.27;;
84288;SDS011;75147;50.294;18.660;2024-03-02T01:06:00;72.47;;;30.85;;
84288;SDS011;75147;50.294;18.660;2024-03-02T01:08:26;68.18;;;30.85;;
84288;SDS011;75147;50.294;18.660;2024-03-02T01:10:51;68.55;;;30.10;;
84288;SDS011;75147;50.294;18.660;2024-03-02T01:13:17;73.85;;;31.63;;
84288;SDS011;75147;50.294;18.660;2024-03-02T01:15:42;60.10;;;29.27;;
84288;SDS011;75147;50.294;18.660;2024-03-02T01:18:08;68.03;;;29.63;;
84288;SDS011;75147;50.294;18.660;2024-03-02T01:20:34;61.25;;;28.25;;
84288;SDS011;75147;50.294;18.660;2024-03-02T01:23:00;69.40;;;30.45;;
84288;SDS011;75147;50.294;18.660;2024-03-02T01:25:25;70.35;;;30.45;;
84288;SDS011;75147;50.294;18.660;2024-03-02T01:27:50;68.85;;;29.23;;
84288;SDS011;75147;50.294;18.660;2024-03-02T01:30:16;61.10;;;29.50;;
84288;SDS011;75147;50.294;18.660;2024-03-02T01:32:41;68.82;;;30.10;;
84288;SDS011;75147;50.294;18.660;2024-03-02T01:35:07;63.70;;;29.15;;
84288;SDS011;75147;50.294;18.660;2024-03-02T01:37:33;65.43;;;29.10;;
84288;SDS011;75147;50.294;18.660;2024-03-02T01:39:58;66.63;;;29.73;;
84288;SDS011;75147;50.294;18.660;2024-03-02T01:42:24;62.83;;;28.48;;
84288;SDS011;75147;50.294;18.660;2024-03-02T01:44:49;64.10;;;29.05;;
84288;SDS011;75147;50.294;18.660;2024-03-02T01:47:15;62.40;;;29.30;;
84288;SDS011;75147;50.294;18.660;2024-03-02T01:49:41;70.07;;;30.67;;
84288;SDS011;75147;50.294;18.660;2024-03-02T01:52:06;60.67;;;27.65;;
84288;SDS011;75147;50.294;18.660;2024-03-02T01:54:32;61.45;;;26.95;;
84288;SDS011;75147;50.294;18.660;2024-03-02T01:56:58;60.33;;;27.38;;
84288;SDS011;75147;50.294;18.660;2024-03-02T01:59:24;65.25;;;29.30;;
84288;SDS011;75147;50.294;18.660;2024-03-02T02:01:49;62.00;;;27.05;;
84288;SDS011;75147;50.294;18.660;2024-03-02T02:04:15;51.67;;;25.77;;
84288;SDS011;75147;50.294;18.660;2024-03-02T02:06:40;58.28;;;26.10;;
84288;SDS011;75147;50.294;18.660;2024-03-02T02:09:06;53.42;;;24.58;;
84288;SDS011;75147;50.294;18.660;2024-03-02T02:11:33;56.50;;;25.33;;
84288;SDS011;75147;50.294;18.660;2024-03-02T02:13:59;47.20;;;22.25;;
84288;SDS011;75147;50.294;18.660;2024-03-02T02:16:24;49.95;;;22.88;;
84288;SDS011;75147;50.294;18.660;2024-03-02T02:18:50;52.78;;;22.67;;
84288;SDS011;75147;50.294;18.660;2024-03-02T02:21:15;49.03;;;22.65;;
84288;SDS011;75147;50.294;18.660;2024-03-02T02:23:40;51.40;;;23.67;;
84288;SDS011;75147;50.294;18.660;2024-03-02T02:26:11;54.00;;;23.15;;
84288;SDS011;75147;50.294;18.660;2024-03-02T02:28:36;49.85;;;23.10;;
84288;SDS011;75147;50.294;18.660;2024-03-02T02:31:02;50.05;;;22.55;;
84288;SDS011;75147;50.294;18.660;2024-03-02T02:33:28;45.92;;;23.25;;
84288;SDS011;75147;50.294;18.660;2024-03-02T02:35:53;41.75;;;22.02;;
84288;SDS011;75147;50.294;18.660;2024-03-02T02:38:19;49.78;;;22.45;;
84288;SDS011;75147;50.294;18.660;2024-03-02T02:40:45;47.60;;;21.90;;
84288;SDS011;75147;50.294;18.660;2024-03-02T02:43:10;48.42;;;22.55;;
84288;SDS011;75147;50.294;18.660;2024-03-02T02:45:36;49.55;;;23.40;;
84288;SDS011;75147;50.294;18.660;2024-03-02T02:48:01;46.25;;;22.27;;
84288;SDS011;75147;50.294;18.660;2024-03-02T02:50:27;45.42;;;22.48;;
84288;SDS011;75147;50.294;18.660;2024-03-02T02:52:53;48.40;;;22.75;;
84288;SDS011;75147;50.294;18.660;2024-03-02T02:55:18;45.50;;;22.38;;
84288;SDS011;75147;50.294;18.660;2024-03-02T02:57:44;44.20;;;21.98;;
84288;SDS011;75147;50.294;18.660;2024-03-02T03:00:11;49.85;;;23.98;;
84288;SDS011;75147;50.294;18.660;2024-03-02T03:02:44;52.65;;;22.00;;
84288;SDS011;75147;50.294;18.660;2024-03-02T03:05:11;44.67;;;23.35;;
84288;SDS011;75147;50.294;18.660;2024-03-02T03:07:40;50.00;;;22.98;;
84288;SDS011;75147;50.294;18.660;2024-03-02T03:10:07;48.13;;;24.75;;
84288;SDS011;75147;50.294;18.660;2024-03-02T03:12:33;47.67;;;24.08;;
84288;SDS011;75147;50.294;18.660;2024-03-02T03:14:59;50.67;;;24.10;;
84288;SDS011;75147;50.294;18.660;2024-03-02T03:17:25;52.65;;;23.98;;
84288;SDS011;75147;50.294;18.660;2024-03-02T03:19:51;49.08;;;23.17;;
84288;SDS011;75147;50.294;18.660;2024-03-02T03:22:16;49.75;;;22.88;;
84288;SDS011;75147;50.294;18.660;2024-03-02T03:24:42;48.17;;;23.67;;
84288;SDS011;75147;50.294;18.660;2024-03-02T03:27:07;46.58;;;21.92;;
84288;SDS011;75147;50.294;18.660;2024-03-02T03:29:35;45.50;;;23.63;;
84288;SDS011;75147;50.294;18.660;2024-03-02T03:32:02;45.92;;;22.77;;
84288;SDS011;75147;50.294;18.660;2024-03-02T03:34:29;51.47;;;24.17;;
84288;SDS011;75147;50.294;18.660;2024-03-02T03:36:57;50.30;;;23.33;;
84288;SDS011;75147;50.294;18.660;2024-03-02T03:39:23;46.45;;;22.25;;
84288;SDS011;75147;50.294;18.660;2024-03-02T03:41:48;39.95;;;20.88;;
84288;SDS011;75147;50.294;18.660;2024-03-02T03:44:13;47.72;;;23.23;;
84288;SDS011;75147;50.294;18.660;2024-03-02T03:46:39;46.22;;;23.65;;
84288;SDS011;75147;50.294;18.660;2024-03-02T03:49:04;47.15;;;22.88;;
84288;SDS011;75147;50.294;18.660;2024-03-02T03:51:30;43.50;;;22.55;;
84288;SDS011;75147;50.294;18.660;2024-03-02T03:53:55;45.28;;;22.27;;
84288;SDS011;75147;50.294;18.660;2024-03-02T03:56:21;45.63;;;22.40;;
84288;SDS011;75147;50.294;18.660;2024-03-02T03:58:46;42.47;;;22.23;;
84288;SDS011;75147;50.294;18.660;2024-03-02T04:01:11;41.28;;;22.77;;
84288;SDS011;75147;50.294;18.660;2024-03-02T04:03:37;43.40;;;21.83;;
84288;SDS011;75147;50.294;18.660;2024-03-02T04:06:03;43.20;;;22.23;;
84288;SDS011;75147;50.294;18.660;2024-03-02T04:08:29;41.83;;;21.67;;
84288;SDS011;75147;50.294;18.660;2024-03-02T04:10:54;39.30;;;19.80;;
84288;SDS011;75147;50.294;18.660;2024-03-02T04:13:19;38.60;;;20.27;;
84288;SDS011;75147;50.294;18.660;2024-03-02T04:15:45;47.47;;;22.05;;
84288;SDS011;75147;50.294;18.660;2024-03-02T04:18:10;42.90;;;20.48;;
84288;SDS011;75147;50.294;18.660;2024-03-02T04:20:36;36.65;;;20.55;;
84288;SDS011;75147;50.294;18.660;2024-03-02T04:23:02;38.45;;;20.27;;
84288;SDS011;75147;50.294;18.660;2024-03-02T04:25:27;44.80;;;21.38;;
84288;SDS011;75147;50.294;18.660;2024-03-02T04:27:52;40.17;;;20.55;;
84288;SDS011;75147;50.294;18.660;2024-03-02T04:30:18;37.70;;;19.88;;
84288;SDS011;75147;50.294;18.660;2024-03-02T04:32:43;38.67;;;19.50;;
84288;SDS011;75147;50.294;18.660;2024-03-02T04:35:11;42.20;;;19.58;;
84288;SDS011;75147;50.294;18.660;2024-03-02T04:37:37;39.65;;;19.65;;
84288;SDS011;75147;50.294;18.660;2024-03-02T04:40:03;42.00;;;19.63;;
84288;SDS011;75147;50.294;18.660;2024-03-02T04:42:28;42.47;;;19.83;;
84288;SDS011;75147;50.294;18.660;2024-03-02T04:44:54;39.60;;;20.15;;
84288;SDS011;75147;50.294;18.660;2024-03-02T04:47:19;39.17;;;21.92;;
84288;SDS011;75147;50.294;18.660;2024-03-02T04:49:45;40.97;;;20.40;;
84288;SDS011;75147;50.294;18.660;2024-03-02T04:52:11;39.72;;;21.13;;
84288;SDS011;75147;50.294;18.660;2024-03-02T04:54:36;40.78;;;21.02;;
84288;SDS011;75147;50.294;18.660;2024-03-02T04:57:21;38.40;;;19.48;;
84288;SDS011;75147;50.294;18.660;2024-03-02T04:59:47;43.15;;;20.55;;
84288;SDS011;75147;50.294;18.660;2024-03-02T05:02:12;40.05;;;19.38;;
84288;SDS011;75147;50.294;18.660;2024-03-02T05:04:39;43.75;;;21.02;;
84288;SDS011;75147;50.294;18.660;2024-03-02T05:07:05;44.00;;;20.98;;
84288;SDS011;75147;50.294;18.660;2024-03-02T05:09:30;40.08;;;21.15;;
84288;SDS011;75147;50.294;18.660;2024-03-02T05:11:55;44.97;;;21.60;;
84288;SDS011;75147;50.294;18.660;2024-03-02T05:14:39;42.88;;;20.13;;
84288;SDS011;75147;50.294;18.660;2024-03-02T05:17:05;40.50;;;21.00;;
84288;SDS011;75147;50.294;18.660;2024-03-02T05:19:30;41.47;;;19.83;;
84288;SDS011;75147;50.294;18.660;2024-03-02T05:21:56;41.50;;;20.70;;
84288;SDS011;75147;50.294;18.660;2024-03-02T05:24:21;42.80;;;19.77;;
84288;SDS011;75147;50.294;18.660;2024-03-02T05:26:47;41.83;;;20.52;;
84288;SDS011;75147;50.294;18.660;2024-03-02T05:29:12;40.08;;;20.17;;
84288;SDS011;75147;50.294;18.660;2024-03-02T05:31:37;40.58;;;20.23;;
84288;SDS011;75147;50.294;18.660;2024-03-02T05:34:03;40.97;;;19.85;;
84288;SDS011;75147;50.294;18.660;2024-03-02T05:36:28;42.53;;;20.48;;
84288;SDS011;75147;50.294;18.660;2024-03-02T05:38:54;40.55;;;20.00;;
84288;SDS011;75147;50.294;18.660;2024-03-02T05:41:19;45.28;;;21.73;;
84288;SDS011;75147;50.294;18.660;2024-03-02T05:43:45;38.42;;;19.95;;
84288;SDS011;75147;50.294;18.660;2024-03-02T05:46:10;40.50;;;19.80;;
84288;SDS011;75147;50.294;18.660;2024-03-02T05:48:35;40.53;;;20.13;;
84288;SDS011;75147;50.294;18.660;2024-03-02T05:51:01;41.20;;;20.20;;
84288;SDS011;75147;50.294;18.660;2024-03-02T05:53:26;41.83;;;19.95;;
84288;SDS011;75147;50.294;18.660;2024-03-02T05:55:52;39.15;;;20.60;;
84288;SDS011;75147;50.294;18.660;2024-03-02T05:58:20;38.60;;;19.13;;
84288;SDS011;75147;50.294;18.660;2024-03-02T06:00:49;40.50;;;18.58;;
84288;SDS011;75147;50.294;18.660;2024-03-02T06:03:14;38.28;;;20.35;;
84288;SDS011;75147;50.294;18.660;2024-03-02T06:05:40;38.90;;;19.52;;
84288;SDS011;75147;50.294;18.660;2024-03-02T06:08:06;42.35;;;21.30;;
84288;SDS011;75147;50.294;18.660;2024-03-02T06:10:32;36.40;;;20.00;;
84288;SDS011;75147;50.294;18.660;2024-03-02T06:12:57;41.00;;;19.40;;
84288;SDS011;75147;50.294;18.660;2024-03-02T06:15:24;38.30;;;19.85;;
84288;SDS011;75147;50.294;18.660;2024-03-02T06:17:49;40.97;;;21.10;;
84288;SDS011;75147;50.294;18.660;2024-03-02T06:20:15;36.03;;;19.88;;
84288;SDS011;75147;50.294;18.660;2024-03-02T06:22:40;43.45;;;21.92;;
84288;SDS011;75147;50.294;18.660;2024-03-02T06:25:06;36.13;;;20.27;;
84288;SDS011;75147;50.294;18.660;2024-03-02T06:27:31;45.95;;;20.98;;
84288;SDS011;75147;50.294;18.660;2024-03-02T06:29:57;40.10;;;20.33;;
84288;SDS011;75147;50.294;18.660;2024-03-02T06:32:22;41.33;;;21.17;;
84288;SDS011;75147;50.294;18.660;2024-03-02T06:34:50;44.15;;;20.45;;
84288;SDS011;75147;50.294;18.660;2024-03-02T06:37:15;42.40;;;20.75;;
84288;SDS011;75147;50.294;18.660;2024-03-02T06:39:41;46.80;;;20.77;;
84288;SDS011;75147;50.294;18.660;2024-03-02T06:42:06;43.20;;;21.48;;
84288;SDS011;75147;50.294;18.660;2024-03-02T06:44:32;42.05;;;21.73;;
84288;SDS011;75147;50.294;18.660;2024-03-02T06:46:57;39.72;;;20.05;;
84288;SDS011;75147;50.294;18.660;2024-03-02T06:49:22;46.35;;;21.63;;
84288;SDS011;75147;50.294;18.660;2024-03-02T06:51:48;43.80;;;20.73;;
84288;SDS011;75147;50.294;18.660;2024-03-02T06:54:14;43.20;;;21.33;;
84288;SDS011;75147;50.294;18.660;2024-03-02T06:56:40;45.28;;;21.15;;
84288;SDS011;75147;50.294;18.660;2024-03-02T06:59:05;40.22;;;20.15;;
84288;SDS011;75147;50.294;18.660;2024-03-02T07:01:31;38.28;;;20.40;;
84288;SDS011;75147;50.294;18.660;2024-03-02T07:03:56;40.53;;;21.27;;
84288;SDS011;75147;50.294;18.660;2024-03-02T07:06:21;40.45;;;20.20;;
84288;SDS011;75147;50.294;18.660;2024-03-02T07:08:47;39.45;;;21.25;;
84288;SDS011;75147;50.294;18.660;2024-03-02T07:11:12;40.00;;;21.20;;
84288;SDS011;75147;50.294;18.660;2024-03-02T07:13:38;41.58;;;21.40;;
84288;SDS011;75147;50.294;18.660;2024-03-02T07:16:03;44.05;;;21.10;;
84288;SDS011;75147;50.294;18.660;2024-03-02T07:18:29;41.47;;;20.17;;
84288;SDS011;75147;50.294;18.660;2024-03-02T07:21:07;41.08;;;20.58;;
84288;SDS011;75147;50.294;18.660;2024-03-02T07:23:32;42.90;;;21.25;;
84288;SDS011;75147;50.294;18.660;2024-03-02T07:25:59;42.13;;;21.08;;
84288;SDS011;75147;50.294;18.660;2024-03-02T07:28:26;38.80;;;20.92;;
84288;SDS011;75147;50.294;18.660;2024-03-02T07:31:02;42.92;;;21.08;;
84288;SDS011;75147;50.294;18.660;2024-03-02T07:33:29;44.75;;;21.98;;
84288;SDS011;75147;50.294;18.660;2024-03-02T07:35:55;39.38;;;20.55;;
84288;SDS011;75147;50.294;18.660;2024-03-02T07:38:21;41.28;;;21.15;;
84288;SDS011;75147;50.294;18.660;2024-03-02T07:40:47;43.72;;;21.50;;
84288;SDS011;75147;50.294;18.660;2024-03-02T07:43:15;43.92;;;20.83;;
84288;SDS011;75147;50.294;18.660;2024-03-02T07:45:42;40.30;;;20.77;;
84288;SDS011;75147;50.294;18.660;2024-03-02T07:48:07;40.45;;;21.30;;
84288;SDS011;75147;50.294;18.660;2024-03-02T07:50:33;41.00;;;20.38;;
84288;SDS011;75147;50.294;18.660;2024-03-02T07:53:00;38.72;;;20.95;;
84288;SDS011;75147;50.294;18.660;2024-03-02T07:55:26;42.28;;;20.83;;
84288;SDS011;75147;50.294;18.660;2024-03-02T07:57:51;45.30;;;21.30;;
84288;SDS011;75147;50.294;18.660;2024-03-02T08:00:16;38.72;;;22.02;;
84288;SDS011;75147;50.294;18.660;2024-03-02T08:02:42;44.17;;;20.90;;
84288;SDS011;75147;50.294;18.660;2024-03-02T08:05:07;40.13;;;21.55;;
84288;SDS011;75147;50.294;18.660;2024-03-02T08:07:33;39.10;;;19.52;;
84288;SDS011;75147;50.294;18.660;2024-03-02T08:09:59;39.83;;;21.17;;
84288;SDS011;75147;50.294;18.660;2024-03-02T08:12:25;38.90;;;20.33;;
84288;SDS011;75147;50.294;18.660;2024-03-02T08:14:50;46.28;;;23.40;;
84288;SDS011;75147;50.294;18.660;2024-03-02T08:17:16;41.65;;;20.65;;
84288;SDS011;75147;50.294;18.660;2024-03-02T08:19:41;45.78;;;22.90;;
84288;SDS011;75147;50.294;18.660;2024-03-02T08:22:07;39.67;;;21.55;;
84288;SDS011;75147;50.294;18.660;2024-03-02T08:24:33;43.92;;;21.90;;
84288;SDS011;75147;50.294;18.660;2024-03-02T08:26:59;44.15;;;22.33;;
84288;SDS011;75147;50.294;18.660;2024-03-02T08:29:25;37.72;;;21.27;;
84288;SDS011;75147;50.294;18.660;2024-03-02T08:31:50;47.78;;;22.52;;
84288;SDS011;75147;50.294;18.660;2024-03-02T08:34:16;41.60;;;21.85;;
84288;SDS011;75147;50.294;18.660;2024-03-02T08:36:41;41.25;;;20.83;;
84288;SDS011;75147;50.294;18.660;2024-03-02T08:39:07;42.20;;;22.15;;
84288;SDS011;75147;50.294;18.660;2024-03-02T08:41:40;40.00;;;21.38;;
84288;SDS011;75147;50.294;18.660;2024-03-02T08:44:09;42.65;;;22.45;;
84288;SDS011;75147;50.294;18.660;2024-03-02T08:46:35;40.90;;;21.92;;
84288;SDS011;75147;50.294;18.660;2024-03-02T08:49:01;42.00;;;21.60;;
84288;SDS011;75147;50.294;18.660;2024-03-02T08:51:26;46.92;;;21.52;;
84288;SDS011;75147;50.294;18.660;2024-03-02T08:53:52;40.95;;;22.15;;
84288;SDS011;75147;50.294;18.660;2024-03-02T08:56:17;44.05;;;22.33;;
84288;SDS011;75147;50.294;18.660;2024-03-02T08:58:43;41.05;;;21.88;;
84288;SDS011;75147;50.294;18.660;2024-03-02T09:01:09;40.42;;;21.48;;
84288;SDS011;75147;50.294;18.660;2024-03-02T09:03:36;41.17;;;22.25;;
84288;SDS011;75147;50.294;18.660;2024-03-02T09:06:02;45.33;;;22.27;;
84288;SDS011;75147;50.294;18.660;2024-03-02T09:08:28;41.75;;;21.30;;
84288;SDS011;75147;50.294;18.660;2024-03-02T09:10:53;42.50;;;22.20;;
84288;SDS011;75147;50.294;18.660;2024-03-02T09:13:19;38.75;;;22.25;;
84288;SDS011;75147;50.294;18.660;2024-03-02T09:15:45;42.97;;;22.42;;
84288;SDS011;75147;50.294;18.660;2024-03-02T09:18:10;40.80;;;21.90;;
84288;SDS011;75147;50.294;18.660;2024-03-02T09:20:36;41.88;;;22.55;;
84288;SDS011;75147;50.294;18.660;2024-03-02T09:23:01;41.35;;;20.80;;
84288;SDS011;75147;50.294;18.660;2024-03-02T09:25:27;39.80;;;21.08;;
84288;SDS011;75147;50.294;18.660;2024-03-02T09:27:52;43.13;;;20.90;;
84288;SDS011;75147;50.294;18.660;2024-03-02T09:30:17;40.38;;;22.02;;
84288;SDS011;75147;50.294;18.660;2024-03-02T09:32:43;43.13;;;22.50;;
84288;SDS011;75147;50.294;18.660;2024-03-02T09:35:08;42.42;;;21.45;;
84288;SDS011;75147;50.294;18.660;2024-03-02T09:37:34;39.28;;;19.60;;
84288;SDS011;75147;50.294;18.660;2024-03-02T09:40:01;34.90;;;20.00;;
84288;SDS011;75147;50.294;18.660;2024-03-02T09:42:26;39.05;;;19.92;;
84288;SDS011;75147;50.294;18.660;2024-03-02T09:44:52;40.20;;;22.05;;
84288;SDS011;75147;50.294;18.660;2024-03-02T09:47:18;45.42;;;23.70;;
84288;SDS011;75147;50.294;18.660;2024-03-02T09:49:43;37.60;;;21.90;;
84288;SDS011;75147;50.294;18.660;2024-03-02T09:52:09;40.83;;;23.10;;
84288;SDS011;75147;50.294;18.660;2024-03-02T09:54:35;36.30;;;19.77;;
84288;SDS011;75147;50.294;18.660;2024-03-02T09:57:01;37.65;;;20.10;;
84288;SDS011;75147;50.294;18.660;2024-03-02T09:59:28;41.60;;;20.30;;
84288;SDS011;75147;50.294;18.660;2024-03-02T10:02:01;37.53;;;20.85;;
84288;SDS011;75147;50.294;18.660;2024-03-02T10:04:28;34.90;;;18.33;;
84288;SDS011;75147;50.294;18.660;2024-03-02T10:07:15;34.65;;;19.98;;
84288;SDS011;75147;50.294;18.660;2024-03-02T10:09:42;35.47;;;18.85;;
84288;SDS011;75147;50.294;18.660;2024-03-02T10:12:09;35.85;;;19.02;;
84288;SDS011;75147;50.294;18.660;2024-03-02T10:14:36;40.92;;;21.52;;
84288;SDS011;75147;50.294;18.660;2024-03-02T10:17:08;39.42;;;22.58;;
84288;SDS011;75147;50.294;18.660;2024-03-02T10:19:35;42.75;;;21.70;;
84288;SDS011;75147;50.294;18.660;2024-03-02T10:22:05;35.00;;;20.55;;
84288;SDS011;75147;50.294;18.660;2024-03-02T10:27:07;36.50;;;20.45;;
84288;SDS011;75147;50.294;18.660;2024-03-02T10:29:40;39.72;;;21.05;;
84288;SDS011;75147;50.294;18.660;2024-03-02T10:32:08;34.45;;;21.20;;
84288;SDS011;75147;50.294;18.660;2024-03-02T10:34:36;35.33;;;19.38;;
84288;SDS011;75147;50.294;18.660;2024-03-02T10:37:02;36.38;;;19.92;;
84288;SDS011;75147;50.294;18.660;2024-03-02T10:39:28;36.95;;;20.27;;
84288;SDS011;75147;50.294;18.660;2024-03-02T10:41:55;39.03;;;20.92;;
84288;SDS011;75147;50.294;18.660;2024-03-02T10:44:21;36.55;;;20.92;;
84288;SDS011;75147;50.294;18.660;2024-03-02T10:46:47;38.70;;;21.08;;
84288;SDS011;75147;50.294;18.660;2024-03-02T10:49:15;42.40;;;20.85;;
84288;SDS011;75147;50.294;18.660;2024-03-02T10:51:42;38.03;;;19.27;;
84288;SDS011;75147;50.294;18.660;2024-03-02T10:54:07;33.35;;;18.40;;
84288;SDS011;75147;50.294;18.660;2024-03-02T10:59:11;28.92;;;17.92;;
84288;SDS011;75147;50.294;18.660;2024-03-02T11:01:45;32.00;;;18.73;;
84288;SDS011;75147;50.294;18.660;2024-03-02T11:04:12;33.17;;;18.52;;
84288;SDS011;75147;50.294;18.660;2024-03-02T11:06:41;34.45;;;20.35;;
84288;SDS011;75147;50.294;18.660;2024-03-02T11:09:13;34.97;;;19.10;;
84288;SDS011;75147;50.294;18.660;2024-03-02T11:11:43;30.00;;;17.92;;
84288;SDS011;75147;50.294;18.660;2024-03-02T11:14:13;29.80;;;17.90;;
84288;SDS011;75147;50.294;18.660;2024-03-02T11:16:42;32.88;;;17.45;;
84288;SDS011;75147;50.294;18.660;2024-03-02T11:19:12;31.13;;;17.65;;
84288;SDS011;75147;50.294;18.660;2024-03-02T11:21:39;31.98;;;17.50;;
84288;SDS011;75147;50.294;18.660;2024-03-02T11:26:58;30.15;;;17.55;;
84288;SDS011;75147;50.294;18.660;2024-03-02T11:32:04;34.03;;;18.25;;
84288;SDS011;75147;50.294;18.660;2024-03-02T11:37:10;27.85;;;17.13;;
84288;SDS011;75147;50.294;18.660;2024-03-02T11:39:37;34.05;;;18.95;;
84288;SDS011;75147;50.294;18.660;2024-03-02T11:42:05;35.20;;;19.60;;
84288;SDS011;75147;50.294;18.660;2024-03-02T11:44:34;36.55;;;19.08;;
84288;SDS011;75147;50.294;18.660;2024-03-02T11:47:02;40.67;;;20.38;;
84288;SDS011;75147;50.294;18.660;2024-03-02T11:52:05;33.72;;;19.63;;
84288;SDS011;75147;50.294;18.660;2024-03-02T11:54:34;37.03;;;19.45;;
84288;SDS011;75147;50.294;18.660;2024-03-02T11:57:05;40.70;;;21.30;;
84288;SDS011;75147;50.294;18.660;2024-03-02T11:59:34;31.50;;;19.70;;
84288;SDS011;75147;50.294;18.660;2024-03-02T12:02:00;38.15;;;21.05;;
84288;SDS011;75147;50.294;18.660;2024-03-02T12:04:26;40.13;;;21.17;;
84288;SDS011;75147;50.294;18.660;2024-03-02T12:06:55;36.00;;;19.80;;
84288;SDS011;75147;50.294;18.660;2024-03-02T12:09:24;34.20;;;20.15;;
84288;SDS011;75147;50.294;18.660;2024-03-02T12:12:00;32.08;;;20.05;;
84288;SDS011;75147;50.294;18.660;2024-03-02T12:14:30;36.45;;;20.58;;
84288;SDS011;75147;50.294;18.660;2024-03-02T12:16:56;34.55;;;20.42;;
84288;SDS011;75147;50.294;18.660;2024-03-02T12:19:23;37.30;;;20.23;;
84288;SDS011;75147;50.294;18.660;2024-03-02T12:21:49;37.22;;;21.00;;
84288;SDS011;75147;50.294;18.660;2024-03-02T12:24:15;34.05;;;19.60;;
84288;SDS011;75147;50.294;18.660;2024-03-02T12:26:40;32.22;;;20.67;;
84288;SDS011;75147;50.294;18.660;2024-03-02T12:29:06;30.50;;;19.00;;
84288;SDS011;75147;50.294;18.660;2024-03-02T12:31:32;33.20;;;18.92;;
84288;SDS011;75147;50.294;18.660;2024-03-02T12:33:57;35.13;;;19.13;;
84288;SDS011;75147;50.294;18.660;2024-03-02T12:36:23;32.72;;;18.20;;
84288;SDS011;75147;50.294;18.660;2024-03-02T12:38:52;32.65;;;18.35;;
84288;SDS011;75147;50.294;18.660;2024-03-02T12:41:18;38.40;;;20.00;;
84288;SDS011;75147;50.294;18.660;2024-03-02T12:43:43;34.22;;;20.33;;
84288;SDS011;75147;50.294;18.660;2024-03-02T12:46:08;34.55;;;19.60;;
84288;SDS011;75147;50.294;18.660;2024-03-02T12:48:36;33.95;;;19.55;;
84288;SDS011;75147;50.294;18.660;2024-03-02T12:51:02;36.10;;;19.35;;
84288;SDS011;75147;50.294;18.660;2024-03-02T12:53:28;32.42;;;17.73;;
84288;SDS011;75147;50.294;18.660;2024-03-02T12:55:53;28.90;;;15.18;;
84288;SDS011;75147;50.294;18.660;2024-03-02T12:58:21;20.30;;;11.73;;
84288;SDS011;75147;50.294;18.660;2024-03-02T13:00:47;14.32;;;8.32;;
84288;SDS011;75147;50.294;18.660;2024-03-02T13:03:13;14.93;;;8.00;;
84288;SDS011;75147;50.294;18.660;2024-03-02T13:05:39;14.43;;;7.82;;
84288;SDS011;75147;50.294;18.660;2024-03-02T13:08:05;10.55;;;6.55;;
84288;SDS011;75147;50.294;18.660;2024-03-02T13:10:32;11.38;;;7.03;;
84288;SDS011;75147;50.294;18.660;2024-03-02T13:12:58;12.88;;;6.30;;
84288;SDS011;75147;50.294;18.660;2024-03-02T13:15:23;14.27;;;7.22;;
84288;SDS011;75147;50.294;18.660;2024-03-02T13:17:51;11.73;;;7.18;;
84288;SDS011;75147;50.294;18.660;2024-03-02T13:20:16;12.85;;;7.70;;
84288;SDS011;75147;50.294;18.660;2024-03-02T13:22:43;13.40;;;7.78;;
84288;SDS011;75147;50.294;18.660;2024-03-02T13:25:09;11.02;;;8.05;;
84288;SDS011;75147;50.294;18.660;2024-03-02T13:27:35;15.10;;;9.20;;
84288;SDS011;75147;50.294;18.660;2024-03-02T13:30:02;14.15;;;9.05;;
84288;SDS011;75147;50.294;18.660;2024-03-02T13:32:28;13.77;;;8.60;;
84288;SDS011;75147;50.294;18.660;2024-03-02T13:34:54;14.32;;;9.43;;
84288;SDS011;75147;50.294;18.660;2024-03-02T13:37:22;14.45;;;9.40;;
84288;SDS011;75147;50.294;18.660;2024-03-02T13:39:47;19.45;;;10.05;;
84288;SDS011;75147;50.294;18.660;2024-03-02T13:42:13;17.90;;;10.35;;
84288;SDS011;75147;50.294;18.660;2024-03-02T13:44:40;19.70;;;10.70;;
84288;SDS011;75147;50.294;18.660;2024-03-02T13:47:08;18.55;;;10.95;;
84288;SDS011;75147;50.294;18.660;2024-03-02T13:49:33;19.50;;;11.50;;
84288;SDS011;75147;50.294;18.660;2024-03-02T13:52:01;18.30;;;11.63;;
84288;SDS011;75147;50.294;18.660;2024-03-02T13:54:36;20.75;;;11.55;;
84288;SDS011;75147;50.294;18.660;2024-03-02T13:57:05;19.88;;;11.50;;
84288;SDS011;75147;50.294;18.660;2024-03-02T13:59:32;21.30;;;12.02;;
84288;SDS011;75147;50.294;18.660;2024-03-02T14:02:00;19.77;;;12.05;;
84288;SDS011;75147;50.294;18.660;2024-03-02T14:04:32;20.33;;;12.43;;
84288;SDS011;75147;50.294;18.660;2024-03-02T14:06:58;21.52;;;12.43;;
84288;SDS011;75147;50.294;18.660;2024-03-02T14:09:24;20.45;;;12.80;;
84288;SDS011;75147;50.294;18.660;2024-03-02T14:11:50;21.10;;;13.45;;
84288;SDS011;75147;50.294;18.660;2024-03-02T14:14:16;21.80;;;12.20;;
84288;SDS011;75147;50.294;18.660;2024-03-02T14:16:42;21.02;;;12.60;;
84288;SDS011;75147;50.294;18.660;2024-03-02T14:19:07;24.33;;;12.80;;
84288;SDS011;75147;50.294;18.660;2024-03-02T14:21:34;24.00;;;12.90;;
84288;SDS011;75147;50.294;18.660;2024-03-02T14:24:00;19.92;;;11.48;;